sensor_id;sensor_type;location;lat;lon;timestamp;P1;durP1;ratioP1;P2;durP2;ratioP2
55489;SDS011;44029;52.956;4.772;2023-09-08T00:00:22;10.07;;;7.38;;
55489;SDS011;44029;52.956;4.772;2023-09-08T00:02:47;15.20;;;7.20;;
55489;SDS011;44029;52.956;4.772;2023-09-08T00:05:12;9.95;;;7.43;;
55489;SDS011;44029;52.956;4.772;2023-09-08T00:07:38;11.95;;;7.18;;
55489;SDS011;44029;52.956;4.772;2023-09-08T00:10:03;9.52;;;7.57;;
55489;SDS011;44029;52.956;4.772;2023-09-08T00:12:29;13.48;;;7.35;;
55489;SDS011;44029;52.956;4.772;2023-09-08T00:14:54;10.30;;;7.50;;
55489;SDS011;44029;52.956;4.772;2023-09-08T00:17:20;12.73;;;7.07;;
55489;SDS011;44029;52.956;4.772;2023-09-08T00:19:45;14.90;;;7.13;;
55489;SDS011;44029;52.956;4.772;2023-09-08T00:22:10;9.80;;;7.28;;
55489;SDS011;44029;52.956;4.772;2023-09-08T00:24:36;11.05;;;7.43;;
55489;SDS011;44029;52.956;4.772;2023-09-08T00:27:01;10.40;;;6.97;;
55489;SDS011;44029;52.956;4.772;2023-09-08T00:29:26;9.93;;;7.35;;
55489;SDS011;44029;52.956;4.772;2023-09-08T00:31:52;18.88;;;7.50;;
55489;SDS011;44029;52.956;4.772;2023-09-08T00:34:17;11.40;;;7.43;;
55489;SDS011;44029;52.956;4.772;2023-09-08T00:36:43;12.52;;;8.68;;
55489;SDS011;44029;52.956;4.772;2023-09-08T00:39:08;14.27;;;8.20;;
55489;SDS011;44029;52.956;4.772;2023-09-08T00:41:33;12.02;;;8.13;;
55489;SDS011;44029;52.956;4.772;2023-09-08T00:43:59;12.55;;;6.78;;
55489;SDS011;44029;52.956;4.772;2023-09-08T00:46:24;11.60;;;7.22;;
55489;SDS011;44029;52.956;4.772;2023-09-08T00:48:52;10.40;;;7.55;;
55489;SDS011;44029;52.956;4.772;2023-09-08T00:51:18;10.65;;;6.85;;
55489;SDS011;44029;52.956;4.772;2023-09-08T00:53:44;11.32;;;7.22;;
55489;SDS011;44029;52.956;4.772;2023-09-08T00:56:09;10.07;;;7.28;;
55489;SDS011;44029;52.956;4.772;2023-09-08T00:58:36;9.93;;;7.00;;
55489;SDS011;44029;52.956;4.772;2023-09-08T01:01:02;8.15;;;6.80;;
55489;SDS011;44029;52.956;4.772;2023-09-08T01:03:27;10.63;;;7.10;;
55489;SDS011;44029;52.956;4.772;2023-09-08T01:05:52;10.57;;;7.28;;
55489;SDS011;44029;52.956;4.772;2023-09-08T01:08:18;11.98;;;7.68;;
55489;SDS011;44029;52.956;4.772;2023-09-08T01:10:44;14.85;;;7.65;;
55489;SDS011;44029;52.956;4.772;2023-09-08T01:13:10;9.75;;;7.15;;
55489;SDS011;44029;52.956;4.772;2023-09-08T01:15:35;10.23;;;7.53;;
55489;SDS011;44029;52.956;4.772;2023-09-08T01:18:01;12.40;;;7.85;;
55489;SDS011;44029;52.956;4.772;2023-09-08T01:23:24;12.27;;;8.18;;
55489;SDS011;44029;52.956;4.772;2023-09-08T01:26:08;11.30;;;8.43;;
55489;SDS011;44029;52.956;4.772;2023-09-08T01:28:41;12.27;;;8.55;;
55489;SDS011;44029;52.956;4.772;2023-09-08T01:31:07;14.20;;;8.23;;
55489;SDS011;44029;52.956;4.772;2023-09-08T01:33:32;12.93;;;8.90;;
55489;SDS011;44029;52.956;4.772;2023-09-08T01:35:58;12.73;;;8.05;;
55489;SDS011;44029;52.956;4.772;2023-09-08T01:38:24;13.63;;;8.95;;
55489;SDS011;44029;52.956;4.772;2023-09-08T01:40:49;13.45;;;9.35;;
55489;SDS011;44029;52.956;4.772;2023-09-08T01:43:15;12.15;;;8.60;;
55489;SDS011;44029;52.956;4.772;2023-09-08T01:45:40;13.45;;;8.98;;
55489;SDS011;44029;52.956;4.772;2023-09-08T01:48:05;15.65;;;8.90;;
55489;SDS011;44029;52.956;4.772;2023-09-08T01:50:31;12.05;;;8.85;;
55489;SDS011;44029;52.956;4.772;2023-09-08T01:52:56;19.42;;;8.93;;
55489;SDS011;44029;52.956;4.772;2023-09-08T01:55:22;15.15;;;9.05;;
55489;SDS011;44029;52.956;4.772;2023-09-08T01:57:47;18.30;;;8.70;;
55489;SDS011;44029;52.956;4.772;2023-09-08T02:00:13;14.80;;;9.38;;
55489;SDS011;44029;52.956;4.772;2023-09-08T02:02:39;16.35;;;8.77;;
55489;SDS011;44029;52.956;4.772;2023-09-08T02:05:04;13.63;;;9.00;;
55489;SDS011;44029;52.956;4.772;2023-09-08T02:07:31;13.32;;;9.27;;
55489;SDS011;44029;52.956;4.772;2023-09-08T02:09:56;14.90;;;9.98;;
55489;SDS011;44029;52.956;4.772;2023-09-08T02:12:21;14.70;;;9.23;;
55489;SDS011;44029;52.956;4.772;2023-09-08T02:14:47;12.73;;;9.30;;
55489;SDS011;44029;52.956;4.772;2023-09-08T02:17:12;13.35;;;8.77;;
55489;SDS011;44029;52.956;4.772;2023-09-08T02:19:38;17.55;;;9.40;;
55489;SDS011;44029;52.956;4.772;2023-09-08T02:22:03;12.88;;;8.90;;
55489;SDS011;44029;52.956;4.772;2023-09-08T02:24:28;16.08;;;9.80;;
55489;SDS011;44029;52.956;4.772;2023-09-08T02:26:54;15.23;;;10.40;;
55489;SDS011;44029;52.956;4.772;2023-09-08T02:29:19;13.40;;;9.30;;
55489;SDS011;44029;52.956;4.772;2023-09-08T02:31:44;14.40;;;9.50;;
55489;SDS011;44029;52.956;4.772;2023-09-08T02:34:10;13.52;;;9.38;;
55489;SDS011;44029;52.956;4.772;2023-09-08T02:36:37;14.68;;;9.40;;
55489;SDS011;44029;52.956;4.772;2023-09-08T02:39:03;14.30;;;9.35;;
55489;SDS011;44029;52.956;4.772;2023-09-08T02:41:28;15.95;;;9.77;;
55489;SDS011;44029;52.956;4.772;2023-09-08T02:43:54;15.20;;;9.52;;
55489;SDS011;44029;52.956;4.772;2023-09-08T02:46:19;15.43;;;8.88;;
55489;SDS011;44029;52.956;4.772;2023-09-08T02:48:44;13.65;;;9.10;;
55489;SDS011;44029;52.956;4.772;2023-09-08T02:51:10;16.13;;;8.85;;
55489;SDS011;44029;52.956;4.772;2023-09-08T02:53:37;13.98;;;8.85;;
55489;SDS011;44029;52.956;4.772;2023-09-08T02:56:02;15.02;;;9.15;;
55489;SDS011;44029;52.956;4.772;2023-09-08T02:58:30;17.17;;;9.43;;
55489;SDS011;44029;52.956;4.772;2023-09-08T03:00:58;14.00;;;9.23;;
55489;SDS011;44029;52.956;4.772;2023-09-08T03:03:39;12.83;;;9.00;;
55489;SDS011;44029;52.956;4.772;2023-09-08T03:06:05;11.65;;;8.85;;
55489;SDS011;44029;52.956;4.772;2023-09-08T03:08:30;16.83;;;9.45;;
55489;SDS011;44029;52.956;4.772;2023-09-08T03:10:56;13.68;;;8.90;;
55489;SDS011;44029;52.956;4.772;2023-09-08T03:13:22;13.30;;;8.57;;
55489;SDS011;44029;52.956;4.772;2023-09-08T03:15:47;13.18;;;8.88;;
55489;SDS011;44029;52.956;4.772;2023-09-08T03:18:13;13.82;;;8.95;;
55489;SDS011;44029;52.956;4.772;2023-09-08T03:20:38;14.80;;;9.52;;
55489;SDS011;44029;52.956;4.772;2023-09-08T03:23:05;12.10;;;8.70;;
55489;SDS011;44029;52.956;4.772;2023-09-08T03:25:30;17.48;;;9.98;;
55489;SDS011;44029;52.956;4.772;2023-09-08T03:27:56;17.02;;;10.13;;
55489;SDS011;44029;52.956;4.772;2023-09-08T03:30:21;13.48;;;9.63;;
55489;SDS011;44029;52.956;4.772;2023-09-08T03:32:46;20.08;;;9.93;;
55489;SDS011;44029;52.956;4.772;2023-09-08T03:35:12;16.48;;;10.00;;
55489;SDS011;44029;52.956;4.772;2023-09-08T03:37:37;15.48;;;9.77;;
55489;SDS011;44029;52.956;4.772;2023-09-08T03:40:02;13.32;;;9.80;;
55489;SDS011;44029;52.956;4.772;2023-09-08T03:42:31;14.23;;;10.40;;
55489;SDS011;44029;52.956;4.772;2023-09-08T03:44:57;18.23;;;9.55;;
55489;SDS011;44029;52.956;4.772;2023-09-08T03:47:22;15.23;;;10.02;;
55489;SDS011;44029;52.956;4.772;2023-09-08T03:49:48;15.93;;;11.20;;
55489;SDS011;44029;52.956;4.772;2023-09-08T03:52:13;14.38;;;9.73;;
55489;SDS011;44029;52.956;4.772;2023-09-08T03:54:38;15.55;;;10.38;;
55489;SDS011;44029;52.956;4.772;2023-09-08T03:57:04;15.68;;;9.25;;
55489;SDS011;44029;52.956;4.772;2023-09-08T03:59:29;15.93;;;9.38;;
55489;SDS011;44029;52.956;4.772;2023-09-08T04:01:55;12.50;;;9.10;;
55489;SDS011;44029;52.956;4.772;2023-09-08T04:04:20;13.55;;;9.82;;
55489;SDS011;44029;52.956;4.772;2023-09-08T04:06:46;15.27;;;9.60;;
55489;SDS011;44029;52.956;4.772;2023-09-08T04:09:11;14.85;;;9.93;;
55489;SDS011;44029;52.956;4.772;2023-09-08T04:11:36;15.65;;;9.60;;
55489;SDS011;44029;52.956;4.772;2023-09-08T04:14:02;14.73;;;9.63;;
55489;SDS011;44029;52.956;4.772;2023-09-08T04:16:28;15.73;;;9.35;;
55489;SDS011;44029;52.956;4.772;2023-09-08T04:18:53;15.48;;;10.00;;
55489;SDS011;44029;52.956;4.772;2023-09-08T04:21:18;15.82;;;10.18;;
55489;SDS011;44029;52.956;4.772;2023-09-08T04:23:44;15.32;;;9.30;;
55489;SDS011;44029;52.956;4.772;2023-09-08T04:26:09;14.70;;;10.60;;
55489;SDS011;44029;52.956;4.772;2023-09-08T04:28:35;17.05;;;10.30;;
55489;SDS011;44029;52.956;4.772;2023-09-08T04:31:00;18.73;;;10.52;;
55489;SDS011;44029;52.956;4.772;2023-09-08T04:33:25;21.15;;;10.23;;
55489;SDS011;44029;52.956;4.772;2023-09-08T04:35:51;15.57;;;9.75;;
55489;SDS011;44029;52.956;4.772;2023-09-08T04:38:16;14.75;;;10.02;;
55489;SDS011;44029;52.956;4.772;2023-09-08T04:40:41;14.38;;;10.05;;
55489;SDS011;44029;52.956;4.772;2023-09-08T04:43:07;15.35;;;9.95;;
55489;SDS011;44029;52.956;4.772;2023-09-08T04:45:32;16.80;;;10.85;;
55489;SDS011;44029;52.956;4.772;2023-09-08T04:47:58;18.15;;;11.05;;
55489;SDS011;44029;52.956;4.772;2023-09-08T04:50:23;16.38;;;10.57;;
55489;SDS011;44029;52.956;4.772;2023-09-08T04:52:48;15.93;;;10.43;;
55489;SDS011;44029;52.956;4.772;2023-09-08T04:55:14;17.58;;;11.50;;
55489;SDS011;44029;52.956;4.772;2023-09-08T04:57:39;17.42;;;11.45;;
55489;SDS011;44029;52.956;4.772;2023-09-08T05:00:05;21.17;;;11.60;;
55489;SDS011;44029;52.956;4.772;2023-09-08T05:02:31;17.58;;;11.23;;
55489;SDS011;44029;52.956;4.772;2023-09-08T05:04:57;18.80;;;10.27;;
55489;SDS011;44029;52.956;4.772;2023-09-08T05:07:22;17.77;;;10.73;;
55489;SDS011;44029;52.956;4.772;2023-09-08T05:09:47;19.65;;;11.32;;
55489;SDS011;44029;52.956;4.772;2023-09-08T05:12:13;19.08;;;11.27;;
55489;SDS011;44029;52.956;4.772;2023-09-08T05:14:38;19.85;;;11.13;;
55489;SDS011;44029;52.956;4.772;2023-09-08T05:17:04;19.00;;;10.82;;
55489;SDS011;44029;52.956;4.772;2023-09-08T05:19:29;19.88;;;12.00;;
55489;SDS011;44029;52.956;4.772;2023-09-08T05:21:55;15.70;;;10.60;;
55489;SDS011;44029;52.956;4.772;2023-09-08T05:24:21;17.73;;;10.18;;
55489;SDS011;44029;52.956;4.772;2023-09-08T05:26:46;17.38;;;11.70;;
55489;SDS011;44029;52.956;4.772;2023-09-08T05:29:12;16.23;;;10.20;;
55489;SDS011;44029;52.956;4.772;2023-09-08T05:31:37;15.50;;;10.52;;
55489;SDS011;44029;52.956;4.772;2023-09-08T05:34:03;15.13;;;10.77;;
55489;SDS011;44029;52.956;4.772;2023-09-08T05:36:28;13.23;;;9.70;;
55489;SDS011;44029;52.956;4.772;2023-09-08T05:38:54;13.00;;;8.77;;
55489;SDS011;44029;52.956;4.772;2023-09-08T05:41:20;14.77;;;8.80;;
55489;SDS011;44029;52.956;4.772;2023-09-08T05:43:46;14.82;;;9.00;;
55489;SDS011;44029;52.956;4.772;2023-09-08T05:46:11;15.07;;;9.23;;
55489;SDS011;44029;52.956;4.772;2023-09-08T05:48:38;11.25;;;8.55;;
55489;SDS011;44029;52.956;4.772;2023-09-08T05:51:03;10.98;;;7.95;;
55489;SDS011;44029;52.956;4.772;2023-09-08T05:53:30;12.60;;;8.27;;
55489;SDS011;44029;52.956;4.772;2023-09-08T05:55:55;12.50;;;8.07;;
55489;SDS011;44029;52.956;4.772;2023-09-08T05:58:21;13.02;;;8.95;;
55489;SDS011;44029;52.956;4.772;2023-09-08T06:00:46;14.13;;;8.07;;
55489;SDS011;44029;52.956;4.772;2023-09-08T06:03:11;15.38;;;9.02;;
55489;SDS011;44029;52.956;4.772;2023-09-08T06:05:37;16.35;;;9.32;;
55489;SDS011;44029;52.956;4.772;2023-09-08T06:08:02;15.18;;;9.20;;
55489;SDS011;44029;52.956;4.772;2023-09-08T06:10:28;17.95;;;8.80;;
55489;SDS011;44029;52.956;4.772;2023-09-08T06:12:53;12.70;;;8.70;;
55489;SDS011;44029;52.956;4.772;2023-09-08T06:15:18;16.60;;;8.07;;
55489;SDS011;44029;52.956;4.772;2023-09-08T06:17:44;14.05;;;8.25;;
55489;SDS011;44029;52.956;4.772;2023-09-08T06:20:09;10.52;;;7.95;;
55489;SDS011;44029;52.956;4.772;2023-09-08T06:22:35;14.52;;;8.50;;
55489;SDS011;44029;52.956;4.772;2023-09-08T06:25:00;14.50;;;8.57;;
55489;SDS011;44029;52.956;4.772;2023-09-08T06:27:26;12.98;;;8.00;;
55489;SDS011;44029;52.956;4.772;2023-09-08T06:29:52;17.75;;;8.35;;
55489;SDS011;44029;52.956;4.772;2023-09-08T06:32:17;15.57;;;9.30;;
55489;SDS011;44029;52.956;4.772;2023-09-08T06:34:43;14.50;;;9.05;;
55489;SDS011;44029;52.956;4.772;2023-09-08T06:37:08;14.85;;;9.73;;
55489;SDS011;44029;52.956;4.772;2023-09-08T06:39:33;13.32;;;9.05;;
55489;SDS011;44029;52.956;4.772;2023-09-08T06:41:59;14.48;;;9.18;;
55489;SDS011;44029;52.956;4.772;2023-09-08T06:44:24;15.93;;;9.23;;
55489;SDS011;44029;52.956;4.772;2023-09-08T06:46:50;11.88;;;8.05;;
55489;SDS011;44029;52.956;4.772;2023-09-08T06:49:16;11.10;;;8.38;;
55489;SDS011;44029;52.956;4.772;2023-09-08T06:51:42;12.75;;;8.98;;
55489;SDS011;44029;52.956;4.772;2023-09-08T06:54:07;12.73;;;9.27;;
55489;SDS011;44029;52.956;4.772;2023-09-08T06:56:32;16.60;;;9.68;;
55489;SDS011;44029;52.956;4.772;2023-09-08T06:58:58;14.27;;;9.57;;
55489;SDS011;44029;52.956;4.772;2023-09-08T07:01:23;14.52;;;9.10;;
55489;SDS011;44029;52.956;4.772;2023-09-08T07:03:49;13.25;;;9.60;;
55489;SDS011;44029;52.956;4.772;2023-09-08T07:06:15;12.55;;;9.55;;
55489;SDS011;44029;52.956;4.772;2023-09-08T07:08:41;25.77;;;10.40;;
55489;SDS011;44029;52.956;4.772;2023-09-08T07:11:06;15.77;;;9.60;;
55489;SDS011;44029;52.956;4.772;2023-09-08T07:13:32;15.30;;;10.30;;
55489;SDS011;44029;52.956;4.772;2023-09-08T07:15:58;15.48;;;10.77;;
55489;SDS011;44029;52.956;4.772;2023-09-08T07:18:23;21.52;;;9.98;;
55489;SDS011;44029;52.956;4.772;2023-09-08T07:20:48;13.88;;;10.50;;
55489;SDS011;44029;52.956;4.772;2023-09-08T07:23:15;16.02;;;9.77;;
55489;SDS011;44029;52.956;4.772;2023-09-08T07:25:45;12.38;;;10.35;;
55489;SDS011;44029;52.956;4.772;2023-09-08T07:28:13;13.77;;;10.18;;
55489;SDS011;44029;52.956;4.772;2023-09-08T07:30:39;15.77;;;9.93;;
55489;SDS011;44029;52.956;4.772;2023-09-08T07:33:04;18.40;;;11.68;;
55489;SDS011;44029;52.956;4.772;2023-09-08T07:35:30;16.27;;;10.55;;
55489;SDS011;44029;52.956;4.772;2023-09-08T07:37:56;17.42;;;11.07;;
55489;SDS011;44029;52.956;4.772;2023-09-08T07:40:21;13.45;;;9.82;;
55489;SDS011;44029;52.956;4.772;2023-09-08T07:42:47;17.77;;;10.65;;
55489;SDS011;44029;52.956;4.772;2023-09-08T07:45:12;16.45;;;10.25;;
55489;SDS011;44029;52.956;4.772;2023-09-08T07:47:37;14.18;;;10.82;;
55489;SDS011;44029;52.956;4.772;2023-09-08T07:50:23;15.35;;;10.32;;
55489;SDS011;44029;52.956;4.772;2023-09-08T07:52:51;19.42;;;10.20;;
55489;SDS011;44029;52.956;4.772;2023-09-08T07:55:17;17.92;;;9.70;;
55489;SDS011;44029;52.956;4.772;2023-09-08T07:57:43;15.18;;;10.80;;
55489;SDS011;44029;52.956;4.772;2023-09-08T08:00:11;14.93;;;9.98;;
55489;SDS011;44029;52.956;4.772;2023-09-08T08:02:47;20.52;;;10.93;;
55489;SDS011;44029;52.956;4.772;2023-09-08T08:05:13;13.13;;;10.48;;
55489;SDS011;44029;52.956;4.772;2023-09-08T08:07:40;16.05;;;10.60;;
55489;SDS011;44029;52.956;4.772;2023-09-08T08:10:07;14.55;;;9.90;;
55489;SDS011;44029;52.956;4.772;2023-09-08T08:12:33;17.20;;;10.50;;
55489;SDS011;44029;52.956;4.772;2023-09-08T08:14:59;16.70;;;11.02;;
55489;SDS011;44029;52.956;4.772;2023-09-08T08:17:24;12.43;;;10.30;;
55489;SDS011;44029;52.956;4.772;2023-09-08T08:19:51;16.98;;;11.35;;
55489;SDS011;44029;52.956;4.772;2023-09-08T08:22:17;18.02;;;12.13;;
55489;SDS011;44029;52.956;4.772;2023-09-08T08:24:43;17.25;;;11.82;;
55489;SDS011;44029;52.956;4.772;2023-09-08T08:27:09;16.60;;;12.25;;
55489;SDS011;44029;52.956;4.772;2023-09-08T08:29:34;18.35;;;11.55;;
55489;SDS011;44029;52.956;4.772;2023-09-08T08:32:00;17.08;;;12.27;;
55489;SDS011;44029;52.956;4.772;2023-09-08T08:34:25;16.73;;;12.13;;
55489;SDS011;44029;52.956;4.772;2023-09-08T08:36:51;17.77;;;12.25;;
55489;SDS011;44029;52.956;4.772;2023-09-08T08:39:16;16.38;;;11.73;;
55489;SDS011;44029;52.956;4.772;2023-09-08T08:41:41;18.40;;;12.88;;
55489;SDS011;44029;52.956;4.772;2023-09-08T08:44:07;16.70;;;12.55;;
55489;SDS011;44029;52.956;4.772;2023-09-08T08:46:36;15.98;;;11.93;;
55489;SDS011;44029;52.956;4.772;2023-09-08T08:49:02;16.50;;;13.15;;
55489;SDS011;44029;52.956;4.772;2023-09-08T08:51:28;17.90;;;13.13;;
55489;SDS011;44029;52.956;4.772;2023-09-08T08:53:55;19.67;;;13.63;;
55489;SDS011;44029;52.956;4.772;2023-09-08T08:56:22;18.58;;;13.55;;
55489;SDS011;44029;52.956;4.772;2023-09-08T08:58:48;18.52;;;13.73;;
55489;SDS011;44029;52.956;4.772;2023-09-08T09:01:14;19.20;;;13.38;;
55489;SDS011;44029;52.956;4.772;2023-09-08T09:03:41;19.92;;;13.50;;
55489;SDS011;44029;52.956;4.772;2023-09-08T09:06:09;23.75;;;13.50;;
55489;SDS011;44029;52.956;4.772;2023-09-08T09:08:35;20.08;;;14.45;;
55489;SDS011;44029;52.956;4.772;2023-09-08T09:11:03;17.77;;;14.65;;
55489;SDS011;44029;52.956;4.772;2023-09-08T09:13:29;21.92;;;14.35;;
55489;SDS011;44029;52.956;4.772;2023-09-08T09:15:57;25.10;;;15.20;;
55489;SDS011;44029;52.956;4.772;2023-09-08T09:18:25;22.95;;;15.10;;
55489;SDS011;44029;52.956;4.772;2023-09-08T09:20:54;20.90;;;15.23;;
55489;SDS011;44029;52.956;4.772;2023-09-08T09:23:33;22.15;;;14.65;;
55489;SDS011;44029;52.956;4.772;2023-09-08T09:26:02;23.05;;;15.63;;
55489;SDS011;44029;52.956;4.772;2023-09-08T09:28:30;25.52;;;16.70;;
55489;SDS011;44029;52.956;4.772;2023-09-08T09:30:56;24.27;;;16.50;;
55489;SDS011;44029;52.956;4.772;2023-09-08T09:33:21;24.67;;;15.85;;
55489;SDS011;44029;52.956;4.772;2023-09-08T09:35:48;24.45;;;16.00;;
55489;SDS011;44029;52.956;4.772;2023-09-08T09:38:20;24.23;;;17.33;;
55489;SDS011;44029;52.956;4.772;2023-09-08T09:40:47;21.73;;;16.23;;
55489;SDS011;44029;52.956;4.772;2023-09-08T09:43:14;23.25;;;17.10;;
55489;SDS011;44029;52.956;4.772;2023-09-08T09:45:41;26.08;;;15.82;;
55489;SDS011;44029;52.956;4.772;2023-09-08T09:48:08;23.45;;;17.33;;
55489;SDS011;44029;52.956;4.772;2023-09-08T09:50:35;25.20;;;17.15;;
55489;SDS011;44029;52.956;4.772;2023-09-08T09:53:07;25.95;;;17.30;;
55489;SDS011;44029;52.956;4.772;2023-09-08T09:55:38;26.33;;;18.05;;
55489;SDS011;44029;52.956;4.772;2023-09-08T09:58:05;27.98;;;18.63;;
55489;SDS011;44029;52.956;4.772;2023-09-08T10:00:31;31.27;;;19.80;;
55489;SDS011;44029;52.956;4.772;2023-09-08T10:02:59;30.75;;;19.55;;
55489;SDS011;44029;52.956;4.772;2023-09-08T10:05:25;28.75;;;18.92;;
55489;SDS011;44029;52.956;4.772;2023-09-08T10:07:52;28.42;;;18.58;;
55489;SDS011;44029;52.956;4.772;2023-09-08T10:10:18;30.60;;;19.42;;
55489;SDS011;44029;52.956;4.772;2023-09-08T10:12:45;30.50;;;21.10;;
55489;SDS011;44029;52.956;4.772;2023-09-08T10:15:18;32.22;;;19.58;;
55489;SDS011;44029;52.956;4.772;2023-09-08T10:17:46;33.55;;;19.85;;
55489;SDS011;44029;52.956;4.772;2023-09-08T10:20:17;37.90;;;21.70;;
55489;SDS011;44029;52.956;4.772;2023-09-08T10:22:43;30.33;;;20.30;;
55489;SDS011;44029;52.956;4.772;2023-09-08T10:25:11;31.75;;;21.35;;
55489;SDS011;44029;52.956;4.772;2023-09-08T10:27:39;34.92;;;23.05;;
55489;SDS011;44029;52.956;4.772;2023-09-08T10:30:07;32.05;;;21.25;;
55489;SDS011;44029;52.956;4.772;2023-09-08T10:32:33;33.72;;;21.75;;
55489;SDS011;44029;52.956;4.772;2023-09-08T10:35:00;37.28;;;24.17;;
55489;SDS011;44029;52.956;4.772;2023-09-08T10:37:28;33.45;;;21.67;;
55489;SDS011;44029;52.956;4.772;2023-09-08T10:39:54;39.20;;;21.45;;
55489;SDS011;44029;52.956;4.772;2023-09-08T10:42:21;35.80;;;22.23;;
55489;SDS011;44029;52.956;4.772;2023-09-08T10:47:30;33.42;;;22.95;;
55489;SDS011;44029;52.956;4.772;2023-09-08T10:49:59;35.83;;;23.30;;
55489;SDS011;44029;52.956;4.772;2023-09-08T10:52:25;34.97;;;22.88;;
55489;SDS011;44029;52.956;4.772;2023-09-08T10:54:51;37.55;;;23.83;;
55489;SDS011;44029;52.956;4.772;2023-09-08T10:57:18;37.90;;;24.02;;
55489;SDS011;44029;52.956;4.772;2023-09-08T11:05:19;37.65;;;24.23;;
55489;SDS011;44029;52.956;4.772;2023-09-08T11:07:47;35.85;;;23.90;;
55489;SDS011;44029;52.956;4.772;2023-09-08T11:12:42;34.63;;;22.93;;
55489;SDS011;44029;52.956;4.772;2023-09-08T11:15:08;41.50;;;24.50;;
55489;SDS011;44029;52.956;4.772;2023-09-08T11:17:35;39.05;;;24.27;;
55489;SDS011;44029;52.956;4.772;2023-09-08T11:20:04;39.20;;;25.95;;
55489;SDS011;44029;52.956;4.772;2023-09-08T11:22:33;35.80;;;25.90;;
55489;SDS011;44029;52.956;4.772;2023-09-08T11:25:00;37.20;;;25.08;;
55489;SDS011;44029;52.956;4.772;2023-09-08T11:27:29;40.72;;;25.48;;
55489;SDS011;44029;52.956;4.772;2023-09-08T11:29:55;42.97;;;25.85;;
55489;SDS011;44029;52.956;4.772;2023-09-08T11:32:22;38.03;;;25.63;;
55489;SDS011;44029;52.956;4.772;2023-09-08T11:34:47;36.38;;;24.98;;
55489;SDS011;44029;52.956;4.772;2023-09-08T11:37:13;37.78;;;23.20;;
55489;SDS011;44029;52.956;4.772;2023-09-08T11:39:41;33.50;;;24.08;;
55489;SDS011;44029;52.956;4.772;2023-09-08T11:42:08;35.13;;;22.98;;
55489;SDS011;44029;52.956;4.772;2023-09-08T11:44:35;35.38;;;24.33;;
55489;SDS011;44029;52.956;4.772;2023-09-08T11:47:01;33.60;;;22.17;;
55489;SDS011;44029;52.956;4.772;2023-09-08T11:49:37;33.67;;;22.15;;
55489;SDS011;44029;52.956;4.772;2023-09-08T11:52:04;31.50;;;20.65;;
55489;SDS011;44029;52.956;4.772;2023-09-08T11:54:31;30.38;;;21.67;;
55489;SDS011;44029;52.956;4.772;2023-09-08T11:56:58;36.78;;;24.38;;
55489;SDS011;44029;52.956;4.772;2023-09-08T11:59:30;33.17;;;21.65;;
55489;SDS011;44029;52.956;4.772;2023-09-08T12:01:57;34.97;;;21.73;;
55489;SDS011;44029;52.956;4.772;2023-09-08T12:04:22;35.70;;;22.17;;
55489;SDS011;44029;52.956;4.772;2023-09-08T12:06:48;37.17;;;23.02;;
55489;SDS011;44029;52.956;4.772;2023-09-08T12:09:15;34.30;;;22.25;;
55489;SDS011;44029;52.956;4.772;2023-09-08T12:11:41;36.38;;;23.10;;
55489;SDS011;44029;52.956;4.772;2023-09-08T12:14:08;41.13;;;26.05;;
55489;SDS011;44029;52.956;4.772;2023-09-08T12:16:35;32.92;;;22.05;;
55489;SDS011;44029;52.956;4.772;2023-09-08T12:19:01;37.83;;;23.83;;
55489;SDS011;44029;52.956;4.772;2023-09-08T12:21:26;38.67;;;24.65;;
55489;SDS011;44029;52.956;4.772;2023-09-08T12:23:53;37.85;;;24.08;;
55489;SDS011;44029;52.956;4.772;2023-09-08T12:26:18;34.72;;;24.33;;
55489;SDS011;44029;52.956;4.772;2023-09-08T12:28:44;43.90;;;25.55;;
55489;SDS011;44029;52.956;4.772;2023-09-08T12:31:12;46.33;;;28.73;;
55489;SDS011;44029;52.956;4.772;2023-09-08T12:33:38;45.20;;;30.20;;
55489;SDS011;44029;52.956;4.772;2023-09-08T12:36:10;34.03;;;23.92;;
55489;SDS011;44029;52.956;4.772;2023-09-08T12:38:38;36.03;;;22.35;;
55489;SDS011;44029;52.956;4.772;2023-09-08T12:41:04;56.92;;;34.88;;
55489;SDS011;44029;52.956;4.772;2023-09-08T12:43:29;42.33;;;26.75;;
55489;SDS011;44029;52.956;4.772;2023-09-08T12:45:55;44.72;;;27.20;;
55489;SDS011;44029;52.956;4.772;2023-09-08T12:48:21;42.35;;;24.70;;
55489;SDS011;44029;52.956;4.772;2023-09-08T12:50:46;50.63;;;30.65;;
55489;SDS011;44029;52.956;4.772;2023-09-08T12:53:15;41.72;;;24.88;;
55489;SDS011;44029;52.956;4.772;2023-09-08T12:55:45;44.95;;;26.65;;
55489;SDS011;44029;52.956;4.772;2023-09-08T12:58:10;38.10;;;23.83;;
55489;SDS011;44029;52.956;4.772;2023-09-08T13:00:36;33.10;;;21.23;;
55489;SDS011;44029;52.956;4.772;2023-09-08T13:03:01;30.58;;;20.98;;
55489;SDS011;44029;52.956;4.772;2023-09-08T13:05:27;45.85;;;28.70;;
55489;SDS011;44029;52.956;4.772;2023-09-08T13:07:52;23.70;;;16.42;;
55489;SDS011;44029;52.956;4.772;2023-09-08T13:10:18;22.88;;;15.85;;
55489;SDS011;44029;52.956;4.772;2023-09-08T13:12:45;24.98;;;15.88;;
55489;SDS011;44029;52.956;4.772;2023-09-08T13:15:10;26.50;;;17.02;;
55489;SDS011;44029;52.956;4.772;2023-09-08T13:17:35;29.58;;;16.67;;
55489;SDS011;44029;52.956;4.772;2023-09-08T13:20:01;25.60;;;15.82;;
55489;SDS011;44029;52.956;4.772;2023-09-08T13:22:27;23.85;;;16.17;;
55489;SDS011;44029;52.956;4.772;2023-09-08T13:24:53;26.85;;;14.07;;
55489;SDS011;44029;52.956;4.772;2023-09-08T13:27:18;26.50;;;18.77;;
55489;SDS011;44029;52.956;4.772;2023-09-08T13:29:43;39.38;;;26.10;;
55489;SDS011;44029;52.956;4.772;2023-09-08T13:32:09;34.53;;;21.90;;
55489;SDS011;44029;52.956;4.772;2023-09-08T13:34:35;25.63;;;15.98;;
55489;SDS011;44029;52.956;4.772;2023-09-08T13:37:01;26.38;;;17.10;;
55489;SDS011;44029;52.956;4.772;2023-09-08T13:39:27;25.25;;;15.73;;
55489;SDS011;44029;52.956;4.772;2023-09-08T13:41:53;29.77;;;20.95;;
55489;SDS011;44029;52.956;4.772;2023-09-08T13:44:20;23.85;;;14.48;;
55489;SDS011;44029;52.956;4.772;2023-09-08T13:46:47;24.15;;;13.70;;
55489;SDS011;44029;52.956;4.772;2023-09-08T13:49:13;20.52;;;12.18;;
55489;SDS011;44029;52.956;4.772;2023-09-08T13:51:39;18.02;;;10.18;;
55489;SDS011;44029;52.956;4.772;2023-09-08T13:54:05;17.27;;;10.55;;
55489;SDS011;44029;52.956;4.772;2023-09-08T13:56:31;23.95;;;12.52;;
55489;SDS011;44029;52.956;4.772;2023-09-08T13:58:56;17.23;;;10.93;;
55489;SDS011;44029;52.956;4.772;2023-09-08T14:01:21;17.95;;;10.95;;
55489;SDS011;44029;52.956;4.772;2023-09-08T14:03:46;20.55;;;12.88;;
55489;SDS011;44029;52.956;4.772;2023-09-08T14:06:16;14.27;;;10.45;;
55489;SDS011;44029;52.956;4.772;2023-09-08T14:08:42;21.40;;;9.98;;
55489;SDS011;44029;52.956;4.772;2023-09-08T14:11:07;17.77;;;13.15;;
55489;SDS011;44029;52.956;4.772;2023-09-08T14:13:33;20.55;;;14.70;;
55489;SDS011;44029;52.956;4.772;2023-09-08T14:15:58;41.88;;;26.52;;
55489;SDS011;44029;52.956;4.772;2023-09-08T14:18:23;18.98;;;13.73;;
55489;SDS011;44029;52.956;4.772;2023-09-08T14:20:49;15.73;;;10.30;;
55489;SDS011;44029;52.956;4.772;2023-09-08T14:23:14;64.88;;;44.15;;
55489;SDS011;44029;52.956;4.772;2023-09-08T14:25:39;28.23;;;14.63;;
55489;SDS011;44029;52.956;4.772;2023-09-08T14:28:05;30.33;;;11.38;;
55489;SDS011;44029;52.956;4.772;2023-09-08T14:30:30;39.13;;;18.25;;
55489;SDS011;44029;52.956;4.772;2023-09-08T14:32:55;29.40;;;16.70;;
55489;SDS011;44029;52.956;4.772;2023-09-08T14:35:21;19.55;;;8.55;;